Time;durP1;ratioP1;P1;durP2;ratioP2;P2;SDS_P1;SDS_P2;PMS_P1;PMS_P2;Temp;Humidity;BMP_temperature;BMP_pressure;BME280_temperature;BME280_humidity;BME280_pressure;Samples;Min_cycle;Max_cycle;Signal;HPM_P1;HPM_P2
2023/04/14 00:00:02;;;;;;;8.82;6.18;;;8.40;99.90;;;;;;5009678;28;20224;-85
2023/04/14 00:02:29;;;;;;;8.70;7.70;;;8.40;99.90;;;;;;5004190;28;20203;-83
2023/04/14 00:04:56;;;;;;;7.70;6.38;;;8.60;99.90;;;;;;5014893;28;20284;-85
2023/04/14 00:07:23;;;;;;;9.52;7.07;;;8.50;99.90;;;;;;5001882;28;20355;-84
2023/04/14 00:09:50;;;;;;;7.03;6.18;;;8.50;99.90;;;;;;5013694;28;20529;-86
2023/04/14 00:12:17;;;;;;;6.68;5.28;;;8.40;99.90;;;;;;5002957;28;20225;-84
2023/04/14 00:14:44;;;;;;;5.40;4.47;;;8.50;99.90;;;;;;5013386;28;20232;-83
2023/04/14 00:17:11;;;;;;;6.72;5.72;;;8.60;99.90;;;;;;5009939;28;20258;-85
2023/04/14 00:19:38;;;;;;;11.05;6.13;;;8.60;99.90;;;;;;5021005;28;20210;-85
2023/04/14 00:22:05;;;;;;;6.55;5.90;;;8.60;99.90;;;;;;5017434;28;20209;-85
2023/04/14 00:24:32;;;;;;;7.15;5.90;;;8.60;99.90;;;;;;5005470;28;20220;-84
2023/04/14 00:27:00;;;;;;;7.32;5.50;;;8.50;99.90;;;;;;5024294;28;20208;-82
2023/04/14 00:29:26;;;;;;;6.85;5.88;;;8.50;99.90;;;;;;5022145;28;20182;-83
2023/04/14 00:31:54;;;;;;;6.88;6.20;;;8.60;99.90;;;;;;5027127;28;20201;-82
2023/04/14 00:34:21;;;;;;;6.95;6.18;;;8.40;99.90;;;;;;5012923;28;20233;-85
2023/04/14 00:36:47;;;;;;;8.48;6.80;;;8.30;99.90;;;;;;4994114;28;20237;-84
2023/04/14 00:39:14;;;;;;;8.07;6.70;;;8.20;99.90;;;;;;5014258;28;20213;-85
2023/04/14 00:41:42;;;;;;;8.75;6.43;;;8.20;99.90;;;;;;5011540;28;20428;-84
2023/04/14 00:44:09;;;;;;;10.35;6.60;;;8.30;99.90;;;;;;5014355;28;20215;-83
2023/04/14 00:46:36;;;;;;;7.40;5.97;;;8.40;99.90;;;;;;5002997;28;20202;-84
2023/04/14 00:49:03;;;;;;;9.05;7.05;;;8.60;99.90;;;;;;5007631;28;20253;-84
2023/04/14 00:51:31;;;;;;;11.70;7.15;;;8.50;99.90;;;;;;5012532;28;20199;-85
2023/04/14 00:54:01;;;;;;;7.63;6.45;;;8.40;99.90;;;;;;5017403;28;20212;-85
2023/04/14 00:56:31;;;;;;;10.05;7.45;;;8.30;99.90;;;;;;5014141;28;20208;-85
2023/04/14 00:59:01;;;;;;;10.05;7.85;;;8.20;99.90;;;;;;5000976;28;20233;-84
2023/04/14 01:01:28;;;;;;;8.85;7.95;;;8.30;99.90;;;;;;5000329;28;20214;-86
2023/04/14 01:03:57;;;;;;;8.27;6.93;;;8.40;99.90;;;;;;5007175;28;20197;-85
2023/04/14 01:06:25;;;;;;;12.43;8.05;;;8.40;99.90;;;;;;5008149;28;20244;-85
2023/04/14 01:08:53;;;;;;;8.80;6.80;;;8.40;99.90;;;;;;5019161;28;20213;-85
2023/04/14 01:11:50;;;;;;;10.88;7.05;;;8.30;99.90;;;;;;5017461;28;20654;-84
2023/04/14 01:14:36;;;;;;;7.03;6.35;;;8.50;99.90;;;;;;5002706;28;20277;-85
2023/04/14 01:17:18;;;;;;;9.18;6.80;;;8.50;99.90;;;;;;5011996;28;20213;-84
2023/04/14 01:20:08;;;;;;;10.40;7.45;;;8.50;99.90;;;;;;5004045;28;20666;-83
2023/04/14 01:22:39;;;;;;;7.53;6.60;;;8.50;99.90;;;;;;5005845;28;20204;-86
2023/04/14 01:25:25;;;;;;;10.25;7.40;;;8.40;99.90;;;;;;5013964;28;20226;-85
2023/04/14 01:28:34;;;;;;;;;;;;;;;;;;;;;
2023/04/14 01:31:35;;;;;;;11.63;7.10;;;8.30;99.90;;;;;;5001371;28;20540;-84
2023/04/14 01:34:30;;;;;;;8.63;6.10;;;8.60;99.90;;;;;;5010859;28;20225;-84
2023/04/14 01:37:07;;;;;;;11.77;8.20;;;8.60;99.90;;;;;;5003602;28;20541;-85
2023/04/14 01:39:39;;;;;;;8.90;6.30;;;8.50;99.90;;;;;;5012473;28;20497;-85
2023/04/14 01:42:11;;;;;;;8.18;7.13;;;8.50;99.90;;;;;;5012868;28;20438;-84
2023/04/14 01:44:39;;;;;;;9.07;8.18;;;8.40;99.90;;;;;;5003105;28;20205;-85
2023/04/14 01:47:09;;;;;;;11.05;8.20;;;8.40;99.90;;;;;;5014178;28;20218;-83
2023/04/14 01:49:39;;;;;;;11.40;8.38;;;8.40;99.90;;;;;;5007297;28;20198;-85
2023/04/14 01:52:09;;;;;;;9.23;7.15;;;8.30;99.90;;;;;;5004930;28;20214;-86
2023/04/14 01:54:41;;;;;;;7.40;6.65;;;8.50;99.90;;;;;;5001022;28;20233;-84
2023/04/14 01:57:11;;;;;;;10.32;7.80;;;8.40;99.90;;;;;;5001307;28;20260;-85
2023/04/14 01:59:40;;;;;;;11.23;6.82;;;8.30;99.90;;;;;;5010093;28;20275;-86
2023/04/14 02:02:10;;;;;;;8.20;6.78;;;8.20;99.90;;;;;;5004647;28;20212;-84
2023/04/14 02:04:38;;;;;;;9.10;7.18;;;8.40;99.90;;;;;;4998229;28;20220;-84
2023/04/14 02:07:08;;;;;;;11.93;7.70;;;8.30;99.90;;;;;;4997817;28;20209;-85
2023/04/14 02:09:38;;;;;;;8.43;6.72;;;8.30;99.90;;;;;;5009431;28;20277;-83
2023/04/14 02:12:06;;;;;;;8.32;6.90;;;8.40;99.90;;;;;;5013257;28;20229;-85
2023/04/14 02:14:35;;;;;;;11.40;8.23;;;8.20;99.90;;;;;;5004826;28;20233;-85
2023/04/14 02:17:03;;;;;;;10.15;8.43;;;8.30;99.90;;;;;;5010962;28;20212;-84
2023/04/14 02:19:32;;;;;;;16.60;10.20;;;8.30;99.90;;;;;;5002207;28;20206;-84
2023/04/14 02:22:01;;;;;;;10.98;8.32;;;8.40;99.90;;;;;;5004901;28;20213;-84
2023/04/14 02:24:29;;;;;;;11.80;9.30;;;8.30;99.90;;;;;;5010089;28;20411;-85
2023/04/14 02:27:12;;;;;;;10.88;8.90;;;8.30;99.90;;;;;;4995621;28;20256;-84
2023/04/14 02:29:43;;;;;;;10.43;9.07;;;8.30;99.90;;;;;;5011249;28;20213;-85
2023/04/14 02:32:18;;;;;;;10.63;8.50;;;8.10;99.90;;;;;;5013395;28;20383;-85
2023/04/14 02:35:00;;;;;;;14.25;9.68;;;8.20;99.90;;;;;;5000749;28;20234;-83
2023/04/14 02:37:33;;;;;;;11.07;9.13;;;8.50;99.90;;;;;;5007124;28;20403;-87
2023/04/14 02:40:04;;;;;;;10.27;8.90;;;8.50;99.90;;;;;;5006133;28;20211;-85
2023/04/14 02:42:36;;;;;;;13.00;8.95;;;8.40;99.90;;;;;;5012956;28;20287;-85
2023/04/14 02:45:08;;;;;;;11.85;8.60;;;8.40;99.90;;;;;;5003453;28;20215;-84
2023/04/14 02:47:40;;;;;;;11.57;8.75;;;8.50;99.90;;;;;;5013845;28;20215;-85
2023/04/14 02:50:12;;;;;;;14.32;10.30;;;8.60;99.90;;;;;;5006610;28;20354;-85
2023/04/14 02:52:42;;;;;;;15.13;9.68;;;8.50;99.90;;;;;;5010489;28;20228;-84
2023/04/14 02:55:10;;;;;;;13.35;8.52;;;8.50;99.90;;;;;;5012904;28;20233;-85
2023/04/14 02:57:38;;;;;;;17.70;9.02;;;8.40;99.90;;;;;;5017265;28;20207;-84
2023/04/14 03:00:06;;;;;;;11.10;8.77;;;8.30;99.90;;;;;;5016924;28;20210;-83
2023/04/14 03:02:34;;;;;;;10.35;8.30;;;8.30;99.90;;;;;;5023014;28;20221;-82
2023/04/14 03:05:03;;;;;;;11.18;9.25;;;8.30;99.90;;;;;;5024622;28;20194;-81
2023/04/14 03:07:31;;;;;;;10.32;8.30;;;8.40;99.90;;;;;;5022532;28;20182;-85
2023/04/14 03:09:59;;;;;;;11.45;8.55;;;8.40;99.90;;;;;;5005155;28;20480;-84
2023/04/14 03:12:28;;;;;;;10.20;7.80;;;8.40;99.90;;;;;;5014756;28;20189;-83
2023/04/14 03:14:57;;;;;;;14.68;7.75;;;8.60;99.90;;;;;;5011799;28;20224;-82
2023/04/14 03:17:24;;;;;;;9.95;8.10;;;8.60;99.90;;;;;;5012067;28;20252;-82
2023/04/14 03:19:52;;;;;;;9.90;7.88;;;8.80;99.90;;;;;;5014278;28;20475;-82
2023/04/14 03:22:20;;;;;;;15.05;8.95;;;8.70;99.90;;;;;;5008185;28;20214;-86
2023/04/14 03:24:49;;;;;;;12.50;8.75;;;8.40;99.90;;;;;;5008678;28;20413;-84
2023/04/14 03:27:21;;;;;;;12.82;9.90;;;8.20;99.90;;;;;;5000397;28;20213;-86
2023/04/14 03:29:52;;;;;;;13.00;9.63;;;8.20;99.90;;;;;;5000380;28;20206;-85
2023/04/14 03:32:21;;;;;;;14.15;9.02;;;8.00;99.90;;;;;;5005440;28;20215;-84
2023/04/14 03:34:55;;;;;;;11.63;9.65;;;8.20;99.90;;;;;;5010826;28;20532;-84
2023/04/14 03:37:25;;;;;;;12.10;9.00;;;8.10;99.90;;;;;;5007078;28;20197;-83
2023/04/14 03:39:54;;;;;;;13.23;10.10;;;8.00;99.90;;;;;;5007985;28;20213;-86
2023/04/14 03:42:24;;;;;;;10.93;8.50;;;8.20;99.90;;;;;;5000428;28;20542;-84
2023/04/14 03:44:55;;;;;;;17.83;12.02;;;8.20;99.90;;;;;;4996222;28;20526;-84
2023/04/14 03:47:27;;;;;;;12.27;9.05;;;8.00;99.90;;;;;;4997233;28;20215;-83
2023/04/14 03:50:00;;;;;;;15.82;10.35;;;8.20;99.90;;;;;;5014848;28;20196;-84
2023/04/14 03:52:31;;;;;;;14.80;11.65;;;8.30;99.90;;;;;;5010425;28;20438;-84
2023/04/14 03:55:04;;;;;;;14.80;11.00;;;8.20;99.90;;;;;;5001347;28;20263;-83
2023/04/14 03:57:32;;;;;;;16.73;11.13;;;8.00;99.90;;;;;;5010651;28;20216;-84
2023/04/14 04:00:03;;;;;;;16.50;11.77;;;8.00;99.90;;;;;;4997091;28;20210;-84
2023/04/14 04:02:31;;;;;;;16.85;10.73;;;8.00;99.90;;;;;;5006370;28;20449;-82
2023/04/14 04:04:59;;;;;;;18.58;12.13;;;8.00;99.90;;;;;;5013144;28;20201;-85
2023/04/14 04:07:29;;;;;;;14.25;10.35;;;8.00;99.90;;;;;;4994657;28;20205;-84
2023/04/14 04:09:57;;;;;;;15.45;11.93;;;7.90;99.90;;;;;;5005722;28;20578;-84
2023/04/14 04:12:26;;;;;;;15.85;11.25;;;7.90;99.90;;;;;;4996054;28;20210;-86
2023/04/14 04:14:53;;;;;;;16.70;11.93;;;8.00;99.90;;;;;;5016634;28;20232;-87
2023/04/14 04:17:23;;;;;;;21.27;13.70;;;8.00;99.90;;;;;;5003939;28;20260;-85
2023/04/14 04:19:52;;;;;;;23.90;13.20;;;7.80;99.90;;;;;;5002407;28;20404;-84
2023/04/14 04:22:20;;;;;;;24.63;14.98;;;7.70;99.90;;;;;;5007346;28;20203;-83
2023/04/14 04:24:49;;;;;;;23.33;13.10;;;7.60;99.90;;;;;;4999526;28;20206;-83
2023/04/14 04:27:18;;;;;;;25.23;15.13;;;7.70;99.90;;;;;;5004972;28;20253;-84
2023/04/14 04:29:54;;;;;;;23.42;13.60;;;7.50;99.90;;;;;;5014134;28;20276;-82
2023/04/14 04:32:22;;;;;;;27.85;14.15;;;7.40;99.90;;;;;;5014847;28;20204;-82
2023/04/14 04:34:51;;;;;;;39.58;16.20;;;7.40;99.90;;;;;;5025521;28;20193;-82
2023/04/14 04:37:21;;;;;;;27.30;14.70;;;7.50;99.90;;;;;;5007335;28;20208;-85
2023/04/14 04:39:48;;;;;;;29.98;17.45;;;7.60;99.90;;;;;;5001433;28;20256;-85
2023/04/14 04:42:15;;;;;;;26.02;16.67;;;7.70;99.90;;;;;;5005127;28;20221;-84
2023/04/14 04:44:42;;;;;;;26.65;15.75;;;7.70;99.90;;;;;;5004856;28;20268;-84
2023/04/14 04:47:10;;;;;;;27.20;16.90;;;7.50;99.90;;;;;;5006144;28;20209;-85
2023/04/14 04:49:37;;;;;;;27.05;17.77;;;7.80;99.90;;;;;;5007203;28;20206;-82
2023/04/14 04:52:04;;;;;;;28.67;16.63;;;7.70;99.90;;;;;;5016802;28;20209;-82
2023/04/14 04:54:31;;;;;;;40.05;18.33;;;7.70;99.90;;;;;;5004802;28;20217;-84
2023/04/14 04:56:58;;;;;;;32.22;17.23;;;8.00;99.90;;;;;;5004044;28;20270;-83
2023/04/14 04:59:25;;;;;;;28.58;17.20;;;8.10;99.90;;;;;;5012345;28;20209;-83
2023/04/14 05:01:52;;;;;;;29.77;16.38;;;7.90;99.90;;;;;;5002463;28;20245;-83
2023/04/14 05:04:20;;;;;;;33.28;18.17;;;7.90;99.90;;;;;;5004289;28;20213;-83
2023/04/14 05:06:47;;;;;;;35.40;18.38;;;7.90;99.90;;;;;;5009423;28;20209;-83
2023/04/14 05:09:14;;;;;;;36.13;20.45;;;7.90;99.90;;;;;;5012744;28;20244;-84
2023/04/14 05:11:41;;;;;;;34.38;19.58;;;8.00;99.90;;;;;;5007131;28;20269;-83
2023/04/14 05:14:08;;;;;;;36.58;21.25;;;7.80;99.90;;;;;;5011105;28;20221;-84
2023/04/14 05:16:35;;;;;;;45.42;21.10;;;7.80;99.90;;;;;;5016764;28;20229;-86
2023/04/14 05:19:02;;;;;;;42.67;22.05;;;7.80;99.90;;;;;;5013865;28;20220;-83
2023/04/14 05:21:29;;;;;;;44.53;24.52;;;7.90;99.90;;;;;;5012404;28;20216;-84
2023/04/14 05:23:56;;;;;;;48.28;23.65;;;8.00;99.90;;;;;;5013054;28;20216;-85
2023/04/14 05:26:24;;;;;;;42.78;22.15;;;8.30;99.90;;;;;;5011926;28;20213;-83
2023/04/14 05:29:11;;;;;;;41.63;22.65;;;8.30;99.90;;;;;;4999615;28;20565;-83
2023/04/14 05:31:38;;;;;;;40.40;22.10;;;8.50;99.90;;;;;;5011213;28;20393;-85
2023/04/14 05:34:05;;;;;;;43.25;21.17;;;8.90;99.90;;;;;;5010704;28;20269;-84
2023/04/14 05:36:32;;;;;;;42.90;23.67;;;8.90;99.90;;;;;;5001957;28;20275;-84
2023/04/14 05:38:59;;;;;;;44.90;23.55;;;9.00;99.90;;;;;;5011743;28;20213;-85
2023/04/14 05:41:27;;;;;;;44.55;21.40;;;9.10;99.90;;;;;;5013006;28;20205;-85
2023/04/14 05:43:54;;;;;;;43.85;23.52;;;9.10;99.90;;;;;;5002536;28;20209;-83
2023/04/14 05:46:21;;;;;;;45.28;22.45;;;9.50;99.90;;;;;;5011438;28;20211;-85
2023/04/14 05:48:48;;;;;;;35.85;20.60;;;9.60;99.90;;;;;;5009542;28;20327;-86
2023/04/14 05:51:15;;;;;;;38.60;22.35;;;9.80;99.90;;;;;;5008172;28;20206;-85
2023/04/14 05:53:42;;;;;;;35.65;20.58;;;9.70;99.90;;;;;;5016857;28;20529;-86
2023/04/14 05:56:10;;;;;;;38.55;23.20;;;9.70;99.90;;;;;;5009185;28;20542;-85
2023/04/14 05:58:37;;;;;;;39.72;21.63;;;9.70;99.90;;;;;;5002442;28;20221;-82
2023/04/14 06:01:05;;;;;;;40.08;21.20;;;9.70;99.90;;;;;;4997699;28;20237;-85
2023/04/14 06:03:33;;;;;;;37.42;20.25;;;9.60;99.90;;;;;;5011917;28;20493;-84
2023/04/14 06:06:05;;;;;;;30.80;19.73;;;9.50;99.90;;;;;;5013472;28;20449;-84
2023/04/14 06:08:32;;;;;;;32.38;21.70;;;9.60;99.90;;;;;;5011523;28;20420;-85
2023/04/14 06:10:59;;;;;;;33.42;20.10;;;9.30;99.90;;;;;;5001642;28;20210;-84
2023/04/14 06:13:26;;;;;;;28.55;17.58;;;9.50;99.90;;;;;;5010953;28;20433;-84
2023/04/14 06:15:54;;;;;;;29.65;19.08;;;9.50;99.90;;;;;;5006356;28;20327;-83
2023/04/14 06:18:21;;;;;;;29.88;20.90;;;9.30;99.90;;;;;;5008590;28;20482;-83
2023/04/14 06:20:48;;;;;;;35.65;22.50;;;9.20;99.90;;;;;;5009970;28;20225;-86
2023/04/14 06:23:15;;;;;;;34.13;22.48;;;9.10;99.90;;;;;;5002163;28;20213;-84
2023/04/14 06:25:43;;;;;;;26.55;17.45;;;8.90;99.90;;;;;;5002615;28;20231;-83
2023/04/14 06:28:10;;;;;;;34.60;19.42;;;8.80;99.90;;;;;;5001658;28;20553;-84
2023/04/14 06:30:36;;;;;;;22.25;16.02;;;8.70;99.90;;;;;;5002062;28;20205;-84
2023/04/14 06:33:04;;;;;;;31.52;19.20;;;8.70;99.90;;;;;;5008287;28;20221;-85
2023/04/14 06:35:31;;;;;;;31.95;20.17;;;8.70;99.90;;;;;;4999142;28;20382;-84
2023/04/14 06:38:02;;;;;;;29.95;18.60;;;8.60;99.90;;;;;;5007462;28;20521;-85
2023/04/14 06:40:30;;;;;;;27.63;19.38;;;8.70;99.90;;;;;;5000590;28;20278;-83
2023/04/14 06:42:56;;;;;;;29.63;19.40;;;8.90;99.90;;;;;;5000906;28;20204;-85
2023/04/14 06:45:24;;;;;;;25.75;18.45;;;8.90;99.90;;;;;;5017284;28;20212;-86
2023/04/14 06:47:51;;;;;;;29.90;18.42;;;9.00;99.90;;;;;;5013589;28;20438;-85
2023/04/14 06:50:18;;;;;;;29.52;19.50;;;9.20;99.90;;;;;;5004243;28;20205;-86
2023/04/14 06:52:45;;;;;;;28.42;18.58;;;9.40;99.90;;;;;;5007678;28;20320;-83
2023/04/14 06:55:13;;;;;;;25.75;17.13;;;9.40;99.90;;;;;;5009384;28;20216;-84
2023/04/14 06:57:39;;;;;;;26.58;16.38;;;9.40;99.90;;;;;;5010161;28;20235;-84
2023/04/14 07:00:10;;;;;;;23.70;17.58;;;9.40;99.90;;;;;;4999032;28;20213;-84
2023/04/14 07:02:37;;;;;;;25.50;16.98;;;9.50;99.90;;;;;;5002611;28;20212;-85
2023/04/14 07:05:04;;;;;;;26.05;17.30;;;9.80;99.90;;;;;;5000661;28;20232;-86
2023/04/14 07:07:38;;;;;;;20.17;16.70;;;9.70;99.90;;;;;;5003142;28;20229;-85
2023/04/14 07:10:06;;;;;;;28.75;16.85;;;9.50;99.90;;;;;;5004832;28;20300;-86
2023/04/14 07:12:34;;;;;;;24.48;16.98;;;9.60;99.90;;;;;;4994347;28;20198;-85
2023/04/14 07:15:01;;;;;;;20.60;14.98;;;9.70;99.90;;;;;;4998542;28;20275;-85
2023/04/14 07:17:29;;;;;;;24.60;14.57;;;9.80;99.90;;;;;;4998314;28;20280;-85
2023/04/14 07:19:55;;;;;;;28.60;15.93;;;9.90;99.90;;;;;;5006390;28;20594;-84
2023/04/14 07:22:22;;;;;;;20.48;16.40;;;9.90;99.90;;;;;;5007605;28;20247;-86
2023/04/14 07:24:50;;;;;;;25.08;17.25;;;10.00;99.90;;;;;;5003018;28;20244;-83
2023/04/14 07:27:17;;;;;;;23.20;16.75;;;10.00;99.90;;;;;;5020479;28;20221;-84
2023/04/14 07:29:44;;;;;;;22.00;15.63;;;10.10;99.90;;;;;;5010615;28;20210;-86
2023/04/14 07:32:12;;;;;;;25.80;17.20;;;9.90;99.90;;;;;;4993724;28;20206;-83
2023/04/14 07:34:42;;;;;;;28.65;17.33;;;9.90;99.90;;;;;;4998300;28;20529;-84
2023/04/14 07:37:09;;;;;;;20.48;15.02;;;9.80;99.90;;;;;;5009391;28;20275;-83
2023/04/14 07:39:37;;;;;;;26.38;17.20;;;9.80;99.90;;;;;;5010740;28;20189;-83
2023/04/14 07:42:04;;;;;;;24.90;16.55;;;9.80;99.90;;;;;;5016844;28;20193;-84
2023/04/14 07:44:32;;;;;;;19.35;14.90;;;9.80;99.90;;;;;;5020578;28;20190;-84
2023/04/14 07:46:58;;;;;;;25.67;18.98;;;9.80;99.90;;;;;;5013053;28;20248;-81
2023/04/14 07:49:25;;;;;;;21.75;15.65;;;9.80;99.90;;;;;;5020311;28;20236;-81
2023/04/14 07:51:52;;;;;;;27.40;18.20;;;9.70;99.90;;;;;;5004956;28;20245;-81
2023/04/14 07:54:19;;;;;;;31.80;19.95;;;9.60;99.90;;;;;;5010625;28;20206;-82
2023/04/14 07:56:47;;;;;;;27.48;18.02;;;9.70;99.90;;;;;;5011206;28;20351;-81
2023/04/14 07:59:14;;;;;;;25.88;17.33;;;9.70;99.90;;;;;;5010752;28;20214;-83
2023/04/14 08:01:42;;;;;;;24.83;16.90;;;9.70;99.90;;;;;;5007751;28;20254;-84
2023/04/14 08:04:09;;;;;;;22.30;17.20;;;9.70;99.90;;;;;;5017018;28;20270;-82
2023/04/14 08:06:39;;;;;;;21.30;15.43;;;9.60;99.90;;;;;;5014001;28;20267;-81
2023/04/14 08:09:06;;;;;;;23.10;16.77;;;9.60;99.90;;;;;;5000822;28;20279;-82
2023/04/14 08:11:33;;;;;;;23.63;16.55;;;9.60;99.90;;;;;;5008672;28;20205;-83
2023/04/14 08:13:59;;;;;;;28.08;18.75;;;9.80;99.90;;;;;;5004111;28;20511;-82
2023/04/14 08:16:27;;;;;;;24.88;17.83;;;9.90;99.90;;;;;;5008795;28;20422;-81
2023/04/14 08:18:55;;;;;;;25.65;17.23;;;9.90;99.90;;;;;;5007027;28;20210;-83
2023/04/14 08:21:23;;;;;;;25.33;16.38;;;10.20;99.90;;;;;;5002205;28;20206;-81
2023/04/14 08:23:51;;;;;;;26.15;16.30;;;10.30;99.90;;;;;;5009542;28;20252;-82
2023/04/14 08:26:18;;;;;;;25.95;17.67;;;10.40;99.90;;;;;;5006255;28;20206;-83
2023/04/14 08:28:45;;;;;;;22.85;14.35;;;10.40;99.90;;;;;;5001440;28;20207;-81
2023/04/14 08:31:15;;;;;;;24.27;17.80;;;10.30;99.90;;;;;;4997365;28;20206;-83
2023/04/14 08:33:42;;;;;;;21.52;15.93;;;10.30;99.90;;;;;;5007589;28;20224;-82
2023/04/14 08:36:09;;;;;;;22.33;16.00;;;10.30;99.90;;;;;;5004777;28;20296;-84
2023/04/14 08:38:36;;;;;;;20.58;15.07;;;10.10;99.90;;;;;;5009700;28;20199;-82
2023/04/14 08:41:06;;;;;;;19.80;16.95;;;10.20;99.90;;;;;;5010243;28;20214;-82
2023/04/14 08:43:33;;;;;;;23.98;17.95;;;10.20;99.90;;;;;;5006179;28;20227;-82
2023/04/14 08:46:01;;;;;;;23.38;18.17;;;10.40;99.90;;;;;;5011792;28;20231;-82
2023/04/14 08:48:30;;;;;;;22.60;16.42;;;10.70;99.90;;;;;;5004996;28;20538;-82
2023/04/14 08:51:12;;;;;;;26.17;17.92;;;10.80;99.90;;;;;;5005618;28;20206;-82
2023/04/14 08:53:42;;;;;;;25.85;18.85;;;11.10;99.90;;;;;;5006704;28;20212;-83
2023/04/14 08:56:12;;;;;;;23.48;18.45;;;11.40;99.90;;;;;;5015113;28;20388;-83
2023/04/14 08:58:40;;;;;;;32.85;20.95;;;11.20;99.90;;;;;;5000410;28;20512;-81
2023/04/14 09:01:08;;;;;;;26.50;18.10;;;11.20;99.90;;;;;;5001572;28;20205;-82
2023/04/14 09:03:36;;;;;;;25.95;18.63;;;11.40;99.90;;;;;;5007875;28;20197;-82
2023/04/14 09:06:05;;;;;;;27.70;17.50;;;11.30;99.90;;;;;;5011823;28;20233;-82
2023/04/14 09:08:33;;;;;;;23.30;16.90;;;11.10;99.90;;;;;;5014083;28;20215;-83
2023/04/14 09:11:01;;;;;;;24.58;18.42;;;11.10;99.90;;;;;;5010330;28;20209;-82
2023/04/14 09:13:29;;;;;;;26.73;19.70;;;11.20;99.90;;;;;;5011234;28;20207;-81
2023/04/14 09:15:58;;;;;;;25.25;16.88;;;11.10;99.90;;;;;;5005647;28;20204;-83
2023/04/14 09:18:27;;;;;;;25.20;18.10;;;11.00;99.90;;;;;;5013137;28;20216;-83
2023/04/14 09:20:57;;;;;;;24.58;19.25;;;11.20;99.90;;;;;;5001445;28;20256;-84
2023/04/14 09:23:45;;;;;;;29.35;19.15;;;11.50;99.90;;;;;;5011862;28;20203;-84
2023/04/14 09:26:12;;;;;;;31.73;20.00;;;11.70;99.90;;;;;;5011689;28;20210;-81
2023/04/14 09:28:40;;;;;;;30.27;21.27;;;11.90;99.90;;;;;;5014074;28;20207;-83
2023/04/14 09:31:08;;;;;;;31.98;21.52;;;12.00;99.90;;;;;;5000645;28;20216;-82
2023/04/14 09:33:54;;;;;;;32.58;19.52;;;12.10;99.90;;;;;;5000268;28;20216;-82
2023/04/14 09:36:22;;;;;;;34.05;22.70;;;12.00;99.90;;;;;;4992641;28;20221;-83
2023/04/14 09:38:50;;;;;;;31.95;21.35;;;12.00;99.90;;;;;;5008370;28;20255;-83
2023/04/14 09:41:21;;;;;;;30.80;21.25;;;12.10;99.90;;;;;;4998366;28;20523;-83
2023/04/14 09:43:49;;;;;;;28.67;20.98;;;12.20;99.90;;;;;;5006381;28;20212;-82
2023/04/14 09:46:16;;;;;;;30.48;22.48;;;12.10;99.90;;;;;;5004953;28;20211;-83
2023/04/14 09:48:51;;;;;;;30.35;21.58;;;12.20;99.90;;;;;;5009598;28;20277;-84
2023/04/14 09:51:29;;;;;;;33.13;23.52;;;12.20;99.90;;;;;;5002360;28;20279;-83
2023/04/14 09:54:01;;;;;;;32.72;23.65;;;12.40;99.90;;;;;;4995909;28;20198;-83
2023/04/14 09:56:29;;;;;;;32.60;24.70;;;12.40;99.90;;;;;;5000121;28;20421;-83
2023/04/14 09:59:00;;;;;;;31.60;24.10;;;12.60;99.90;;;;;;5015461;28;20451;-82
2023/04/14 10:01:31;;;;;;;37.42;24.25;;;12.70;99.90;;;;;;5008022;28;20406;-82
2023/04/14 10:04:00;;;;;;;35.83;25.20;;;13.10;99.90;;;;;;5003467;28;20210;-81
2023/04/14 10:06:27;;;;;;;27.98;21.83;;;13.20;99.90;;;;;;5006743;28;20277;-83
2023/04/14 10:08:55;;;;;;;34.47;22.95;;;12.90;99.90;;;;;;5002760;28;20267;-82
2023/04/14 10:11:34;;;;;;;35.13;24.15;;;13.00;99.90;;;;;;4999146;28;20225;-83
2023/04/14 10:14:03;;;;;;;35.92;24.85;;;13.10;99.90;;;;;;5012694;28;20245;-82
2023/04/14 10:16:31;;;;;;;36.65;25.70;;;13.20;99.90;;;;;;5000745;28;20215;-82
2023/04/14 10:18:58;;;;;;;39.40;24.90;;;13.00;99.90;;;;;;4998717;28;20199;-82
2023/04/14 10:21:27;;;;;;;35.38;23.88;;;12.80;99.90;;;;;;4997483;28;20228;-82
2023/04/14 10:23:55;;;;;;;43.30;26.58;;;12.60;99.90;;;;;;5015392;28;20386;-81
2023/04/14 10:26:24;;;;;;;46.55;27.98;;;12.70;99.90;;;;;;4995609;28;20273;-82
2023/04/14 10:28:53;;;;;;;42.42;27.73;;;12.90;99.90;;;;;;5000127;28;20378;-83
2023/04/14 10:31:28;;;;;;;36.97;26.25;;;12.80;99.90;;;;;;5009152;28;20425;-82
2023/04/14 10:33:55;;;;;;;41.92;29.77;;;13.00;99.90;;;;;;5013606;28;20557;-82
2023/04/14 10:36:30;;;;;;;41.85;28.38;;;13.40;99.90;;;;;;5013281;28;20209;-83
2023/04/14 10:39:00;;;;;;;40.03;27.65;;;13.60;99.90;;;;;;5002327;28;20201;-83
2023/04/14 10:41:48;;;;;;;36.67;25.90;;;13.60;99.90;;;;;;4999201;28;20270;-81
2023/04/14 10:44:33;;;;;;;38.03;27.20;;;13.60;99.90;;;;;;5000016;28;20257;-82
2023/04/14 10:47:03;;;;;;;37.75;26.80;;;13.50;99.90;;;;;;4999857;28;20204;-83
2023/04/14 10:49:34;;;;;;;46.90;29.67;;;13.10;99.90;;;;;;5011988;28;20202;-81
2023/04/14 10:52:03;;;;;;;38.15;28.48;;;13.10;99.90;;;;;;5007451;28;20209;-83
2023/04/14 10:54:52;;;;;;;45.47;30.85;;;12.80;99.90;;;;;;5003325;28;20270;-81
2023/04/14 10:57:29;;;;;;;42.97;28.63;;;12.80;99.90;;;;;;5001623;28;20486;-82
2023/04/14 10:59:58;;;;;;;45.88;30.63;;;13.00;99.90;;;;;;5005077;28;20228;-81
2023/04/14 11:02:33;;;;;;;45.90;29.95;;;13.40;99.90;;;;;;4997574;28;20224;-82
2023/04/14 11:05:04;;;;;;;43.10;31.85;;;13.60;99.90;;;;;;5002134;28;20321;-84
2023/04/14 11:07:39;;;;;;;49.13;30.85;;;13.90;99.90;;;;;;5000665;28;20232;-83
2023/04/14 11:10:18;;;;;;;45.10;29.38;;;13.90;99.90;;;;;;5007995;28;20344;-82
2023/04/14 11:12:47;;;;;;;40.15;28.35;;;14.00;99.90;;;;;;5001142;28;20208;-81
2023/04/14 11:15:15;;;;;;;46.17;33.47;;;13.90;99.90;;;;;;5009181;28;20239;-84
2023/04/14 11:17:43;;;;;;;42.17;30.40;;;13.20;99.90;;;;;;5008808;28;20238;-83
2023/04/14 11:20:22;;;;;;;57.30;31.90;;;12.90;99.90;;;;;;5017536;28;20415;-83
2023/04/14 11:22:51;;;;;;;59.58;29.45;;;13.10;99.90;;;;;;5003000;28;20282;-83
2023/04/14 11:25:20;;;;;;;46.53;32.00;;;13.50;99.90;;;;;;5008166;28;20358;-83
2023/04/14 11:27:50;;;;;;;53.65;33.40;;;13.60;99.90;;;;;;4999589;28;20240;-82
2023/04/14 11:30:19;;;;;;;43.90;31.77;;;13.90;99.90;;;;;;5009605;28;20219;-83
2023/04/14 11:32:47;;;;;;;52.83;30.85;;;14.30;99.90;;;;;;5004960;28;20367;-80
2023/04/14 11:35:15;;;;;;;45.42;31.33;;;14.50;99.90;;;;;;5020046;28;20529;-81
2023/04/14 11:37:43;;;;;;;44.88;31.58;;;14.40;99.90;;;;;;5008082;28;20421;-82
2023/04/14 11:40:12;;;;;;;44.75;30.67;;;14.50;99.90;;;;;;5012569;28;20572;-82
2023/04/14 11:42:44;;;;;;;45.65;31.55;;;14.10;99.90;;;;;;5005200;28;20529;-80
2023/04/14 11:45:14;;;;;;;45.58;31.25;;;14.20;99.90;;;;;;4988467;28;20501;-83
2023/04/14 11:47:56;;;;;;;44.33;30.77;;;14.10;99.90;;;;;;5018693;28;20567;-82
2023/04/14 11:50:25;;;;;;;49.88;30.23;;;14.30;99.90;;;;;;5014763;28;20272;-83
2023/04/14 11:52:54;;;;;;;47.45;34.15;;;14.30;99.90;;;;;;5014816;28;20206;-82
2023/04/14 11:55:25;;;;;;;49.28;33.22;;;14.40;99.90;;;;;;5010829;28;20213;-81
2023/04/14 11:57:53;;;;;;;39.47;30.42;;;14.50;99.90;;;;;;5002994;28;20349;-83
2023/04/14 12:00:20;;;;;;;44.40;31.25;;;14.70;99.90;;;;;;5005020;28;20390;-83
2023/04/14 12:02:47;;;;;;;43.53;30.35;;;14.70;99.90;;;;;;5014110;28;20371;-80
2023/04/14 12:05:21;;;;;;;43.75;29.17;;;14.90;99.90;;;;;;5009044;28;20269;-83
2023/04/14 12:07:48;;;;;;;46.03;31.98;;;14.50;99.90;;;;;;5020756;28;20276;-83
2023/04/14 12:10:16;;;;;;;42.72;29.50;;;14.40;99.90;;;;;;5015275;28;20198;-81
2023/04/14 12:12:43;;;;;;;41.20;30.23;;;14.20;99.90;;;;;;5015192;28;20246;-81
2023/04/14 12:15:12;;;;;;;47.92;32.28;;;14.30;99.90;;;;;;5016134;28;20224;-82
2023/04/14 12:17:40;;;;;;;47.33;33.22;;;14.40;99.90;;;;;;5001037;28;20566;-83
2023/04/14 12:20:14;;;;;;;43.57;31.67;;;14.50;99.90;;;;;;5016197;28;20217;-82
2023/04/14 12:22:41;;;;;;;43.30;31.73;;;14.90;99.90;;;;;;5007877;28;20794;-81
2023/04/14 12:25:11;;;;;;;42.00;30.88;;;15.00;99.90;;;;;;5004595;28;20221;-82
2023/04/14 12:27:38;;;;;;;44.05;30.83;;;14.90;99.90;;;;;;5002695;28;20209;-81
2023/04/14 12:30:08;;;;;;;43.97;32.43;;;14.90;99.90;;;;;;5007442;28;20220;-84
2023/04/14 12:32:40;;;;;;;46.20;31.40;;;15.10;99.90;;;;;;5014144;28;20523;-83
2023/04/14 12:35:08;;;;;;;41.20;30.50;;;15.50;99.90;;;;;;5010832;28;20637;-82
2023/04/14 12:37:37;;;;;;;40.60;31.17;;;15.40;99.90;;;;;;5013588;28;20475;-83
2023/04/14 12:40:05;;;;;;;44.33;31.80;;;15.10;99.90;;;;;;5011020;28;20418;-82
2023/04/14 12:42:44;;;;;;;42.70;32.33;;;14.80;99.90;;;;;;5006061;28;20439;-83
2023/04/14 12:45:11;;;;;;;47.05;32.30;;;14.30;99.90;;;;;;5009136;28;20214;-82
2023/04/14 12:47:38;;;;;;;50.15;33.97;;;14.00;99.90;;;;;;5000925;28;20434;-83
2023/04/14 12:50:29;;;;;;;38.58;30.60;;;13.60;99.90;;;;;;5003247;28;20305;-82